Disclaimer

Please do not use the information listed here in-flight or in-navigation, as they are not provided to us by the airports but are provided by volunteers, so they might be outdated.

Search


Regions


Airport information page

Radio informations:
Ground (GND) - 121.6 MHz
INFO - 122.55 MHz

Airport informations:
Latitude: 33° 40' 03.90" N
Longitude: 056° 53' 33.63" E
Elevation: 2312 feet - 705 meters
Operating hours: Remarks
Operating agency: Civil government, landing fees and diplomatic clearance may be required
Timezone: UTC+3:30
Fuel: Jet A1, without icing nhibitor.

Runway information:
15/33 - 9977 x 148 feet< - >3041 x 45 meters

Recent METARs:
OIMT 182200Z AUTO 09004KT //// // ////// 12/01 Q1018
OIMT 182300Z AUTO 12002KT //// // ////// 12/01 Q1018
OIMT 190000Z AUTO 09004KT //// // ////// 10/00 Q1018

Airport on the map: